sensor_id;sensor_type;location;lat;lon;timestamp;temperature;humidity
6666;DHT22;3369;49.906;8.598;2023-06-19T00:01:28;22.90;75.70
6666;DHT22;3369;49.906;8.598;2023-06-19T00:03:54;22.80;76.40
6666;DHT22;3369;49.906;8.598;2023-06-19T00:06:19;22.80;75.80
6666;DHT22;3369;49.906;8.598;2023-06-19T00:08:45;22.80;75.80
6666;DHT22;3369;49.906;8.598;2023-06-19T00:11:10;22.80;75.90
6666;DHT22;3369;49.906;8.598;2023-06-19T00:13:36;22.80;76.00
6666;DHT22;3369;49.906;8.598;2023-06-19T00:16:01;22.80;76.10
6666;DHT22;3369;49.906;8.598;2023-06-19T00:18:28;22.70;76.20
6666;DHT22;3369;49.906;8.598;2023-06-19T00:20:54;22.70;76.10
6666;DHT22;3369;49.906;8.598;2023-06-19T00:23:22;22.70;76.00
6666;DHT22;3369;49.906;8.598;2023-06-19T00:25:47;22.70;75.80
6666;DHT22;3369;49.906;8.598;2023-06-19T00:28:13;22.70;75.60
6666;DHT22;3369;49.906;8.598;2023-06-19T00:30:40;22.70;75.50
6666;DHT22;3369;49.906;8.598;2023-06-19T00:33:07;22.70;75.40
6666;DHT22;3369;49.906;8.598;2023-06-19T00:35:32;22.70;75.20
6666;DHT22;3369;49.906;8.598;2023-06-19T00:37:58;22.70;75.00
6666;DHT22;3369;49.906;8.598;2023-06-19T00:40:27;22.70;74.90
6666;DHT22;3369;49.906;8.598;2023-06-19T00:42:54;22.60;74.70
6666;DHT22;3369;49.906;8.598;2023-06-19T00:45:20;22.50;74.60
6666;DHT22;3369;49.906;8.598;2023-06-19T00:47:45;22.50;74.70
6666;DHT22;3369;49.906;8.598;2023-06-19T00:50:12;22.40;75.30
6666;DHT22;3369;49.906;8.598;2023-06-19T00:52:37;22.40;74.30
6666;DHT22;3369;49.906;8.598;2023-06-19T00:55:04;22.40;74.30
6666;DHT22;3369;49.906;8.598;2023-06-19T00:57:31;22.40;74.20
6666;DHT22;3369;49.906;8.598;2023-06-19T00:59:57;22.30;74.10
6666;DHT22;3369;49.906;8.598;2023-06-19T01:02:27;22.30;74.00
6666;DHT22;3369;49.906;8.598;2023-06-19T01:04:53;22.30;73.80
6666;DHT22;3369;49.906;8.598;2023-06-19T01:07:36;22.30;73.60
6666;DHT22;3369;49.906;8.598;2023-06-19T01:30:29;22.00;72.60
6666;DHT22;3369;49.906;8.598;2023-06-19T01:33:00;22.00;73.40
6666;DHT22;3369;49.906;8.598;2023-06-19T01:35:32;22.00;73.80
6666;DHT22;3369;49.906;8.598;2023-06-19T01:37:59;21.90;74.10
6666;DHT22;3369;49.906;8.598;2023-06-19T01:40:25;21.80;74.30
6666;DHT22;3369;49.906;8.598;2023-06-19T01:42:53;21.80;74.60
6666;DHT22;3369;49.906;8.598;2023-06-19T01:45:20;21.80;74.90
6666;DHT22;3369;49.906;8.598;2023-06-19T01:47:45;21.70;75.20
6666;DHT22;3369;49.906;8.598;2023-06-19T01:50:11;21.70;75.50
6666;DHT22;3369;49.906;8.598;2023-06-19T01:52:40;21.60;75.80
6666;DHT22;3369;49.906;8.598;2023-06-19T01:55:06;21.60;76.00
6666;DHT22;3369;49.906;8.598;2023-06-19T01:57:32;21.60;76.50
6666;DHT22;3369;49.906;8.598;2023-06-19T01:59:58;21.50;76.70
6666;DHT22;3369;49.906;8.598;2023-06-19T02:02:24;21.50;77.10
6666;DHT22;3369;49.906;8.598;2023-06-19T02:04:49;21.50;77.50
6666;DHT22;3369;49.906;8.598;2023-06-19T02:07:15;21.40;78.40
6666;DHT22;3369;49.906;8.598;2023-06-19T02:09:40;21.30;78.60
6666;DHT22;3369;49.906;8.598;2023-06-19T02:12:07;21.30;79.60
6666;DHT22;3369;49.906;8.598;2023-06-19T02:14:33;21.20;80.10
6666;DHT22;3369;49.906;8.598;2023-06-19T02:16:59;21.10;80.70
6666;DHT22;3369;49.906;8.598;2023-06-19T02:19:24;21.10;80.90
6666;DHT22;3369;49.906;8.598;2023-06-19T02:21:50;21.00;80.90
6666;DHT22;3369;49.906;8.598;2023-06-19T02:24:15;21.00;81.10
6666;DHT22;3369;49.906;8.598;2023-06-19T02:26:41;21.00;81.90
6666;DHT22;3369;49.906;8.598;2023-06-19T02:29:09;20.90;82.30
6666;DHT22;3369;49.906;8.598;2023-06-19T02:31:35;20.90;82.40
6666;DHT22;3369;49.906;8.598;2023-06-19T02:34:00;20.90;82.50
6666;DHT22;3369;49.906;8.598;2023-06-19T02:36:26;20.80;82.80
6666;DHT22;3369;49.906;8.598;2023-06-19T02:38:52;20.80;82.90
6666;DHT22;3369;49.906;8.598;2023-06-19T02:41:18;20.80;83.30
6666;DHT22;3369;49.906;8.598;2023-06-19T02:43:45;20.80;83.30
6666;DHT22;3369;49.906;8.598;2023-06-19T02:46:14;20.80;83.40
6666;DHT22;3369;49.906;8.598;2023-06-19T02:48:40;20.80;83.50
6666;DHT22;3369;49.906;8.598;2023-06-19T02:51:05;20.80;83.80
6666;DHT22;3369;49.906;8.598;2023-06-19T02:53:31;20.70;83.50
6666;DHT22;3369;49.906;8.598;2023-06-19T02:55:56;20.70;83.80
6666;DHT22;3369;49.906;8.598;2023-06-19T02:58:22;20.70;83.90
6666;DHT22;3369;49.906;8.598;2023-06-19T03:00:48;20.70;83.90
6666;DHT22;3369;49.906;8.598;2023-06-19T03:03:13;20.70;84.00
6666;DHT22;3369;49.906;8.598;2023-06-19T03:05:39;20.70;84.00
6666;DHT22;3369;49.906;8.598;2023-06-19T03:08:05;20.70;84.00
6666;DHT22;3369;49.906;8.598;2023-06-19T03:10:31;20.70;83.90
6666;DHT22;3369;49.906;8.598;2023-06-19T03:12:56;20.60;83.80
6666;DHT22;3369;49.906;8.598;2023-06-19T03:15:24;20.60;83.80
6666;DHT22;3369;49.906;8.598;2023-06-19T03:17:50;20.60;83.90
6666;DHT22;3369;49.906;8.598;2023-06-19T03:20:15;20.60;84.10
6666;DHT22;3369;49.906;8.598;2023-06-19T03:22:41;20.60;84.20
6666;DHT22;3369;49.906;8.598;2023-06-19T03:25:08;20.60;84.50
6666;DHT22;3369;49.906;8.598;2023-06-19T03:27:34;20.60;84.70
6666;DHT22;3369;49.906;8.598;2023-06-19T03:30:00;20.60;84.90
6666;DHT22;3369;49.906;8.598;2023-06-19T03:32:26;20.60;85.00
6666;DHT22;3369;49.906;8.598;2023-06-19T03:34:51;20.60;85.00
6666;DHT22;3369;49.906;8.598;2023-06-19T03:37:17;20.70;85.10
6666;DHT22;3369;49.906;8.598;2023-06-19T03:39:43;20.70;85.10
6666;DHT22;3369;49.906;8.598;2023-06-19T03:42:08;20.70;85.20
6666;DHT22;3369;49.906;8.598;2023-06-19T03:44:34;20.70;85.20
6666;DHT22;3369;49.906;8.598;2023-06-19T03:47:00;20.80;85.40
6666;DHT22;3369;49.906;8.598;2023-06-19T03:49:25;20.80;85.50
6666;DHT22;3369;49.906;8.598;2023-06-19T03:51:52;20.80;85.50
6666;DHT22;3369;49.906;8.598;2023-06-19T03:54:20;20.90;85.60
6666;DHT22;3369;49.906;8.598;2023-06-19T03:56:45;20.80;85.60
6666;DHT22;3369;49.906;8.598;2023-06-19T03:59:11;20.90;85.50
6666;DHT22;3369;49.906;8.598;2023-06-19T04:01:36;20.90;85.50
6666;DHT22;3369;49.906;8.598;2023-06-19T04:04:02;20.80;85.60
6666;DHT22;3369;49.906;8.598;2023-06-19T04:06:28;20.80;85.50
6666;DHT22;3369;49.906;8.598;2023-06-19T04:08:53;20.80;85.60
6666;DHT22;3369;49.906;8.598;2023-06-19T04:11:19;20.80;85.60
6666;DHT22;3369;49.906;8.598;2023-06-19T04:13:46;20.80;85.60
6666;DHT22;3369;49.906;8.598;2023-06-19T04:16:12;20.80;85.70
6666;DHT22;3369;49.906;8.598;2023-06-19T04:18:38;20.80;85.70
6666;DHT22;3369;49.906;8.598;2023-06-19T04:21:03;20.80;85.70
6666;DHT22;3369;49.906;8.598;2023-06-19T04:23:29;20.80;85.70
6666;DHT22;3369;49.906;8.598;2023-06-19T04:25:55;20.80;85.80
6666;DHT22;3369;49.906;8.598;2023-06-19T04:28:20;20.80;85.90
6666;DHT22;3369;49.906;8.598;2023-06-19T04:30:46;20.90;86.30
6666;DHT22;3369;49.906;8.598;2023-06-19T04:33:11;20.90;86.30
6666;DHT22;3369;49.906;8.598;2023-06-19T04:35:37;20.90;86.20
6666;DHT22;3369;49.906;8.598;2023-06-19T04:38:06;21.00;86.40
6666;DHT22;3369;49.906;8.598;2023-06-19T04:40:32;21.00;86.40
6666;DHT22;3369;49.906;8.598;2023-06-19T04:42:58;21.00;86.40
6666;DHT22;3369;49.906;8.598;2023-06-19T04:45:24;21.10;86.40
6666;DHT22;3369;49.906;8.598;2023-06-19T04:47:50;21.10;86.50
6666;DHT22;3369;49.906;8.598;2023-06-19T04:50:15;21.10;86.40
6666;DHT22;3369;49.906;8.598;2023-06-19T04:52:41;21.20;86.40
6666;DHT22;3369;49.906;8.598;2023-06-19T04:55:07;21.20;86.50
6666;DHT22;3369;49.906;8.598;2023-06-19T04:57:37;21.20;86.50
6666;DHT22;3369;49.906;8.598;2023-06-19T05:00:06;21.30;86.60
6666;DHT22;3369;49.906;8.598;2023-06-19T05:02:32;21.30;86.40
6666;DHT22;3369;49.906;8.598;2023-06-19T05:04:59;21.40;86.50
6666;DHT22;3369;49.906;8.598;2023-06-19T05:07:31;21.40;86.50
6666;DHT22;3369;49.906;8.598;2023-06-19T05:09:57;21.50;86.60
6666;DHT22;3369;49.906;8.598;2023-06-19T05:12:23;21.60;87.20
6666;DHT22;3369;49.906;8.598;2023-06-19T05:14:48;21.60;88.10
6666;DHT22;3369;49.906;8.598;2023-06-19T05:17:14;21.70;87.40
6666;DHT22;3369;49.906;8.598;2023-06-19T05:19:40;21.80;88.10
6666;DHT22;3369;49.906;8.598;2023-06-19T05:22:05;21.80;88.60
6666;DHT22;3369;49.906;8.598;2023-06-19T05:24:32;21.90;88.10
6666;DHT22;3369;49.906;8.598;2023-06-19T05:26:57;21.90;88.70
6666;DHT22;3369;49.906;8.598;2023-06-19T05:29:23;22.00;88.50
6666;DHT22;3369;49.906;8.598;2023-06-19T05:31:49;22.10;88.50
6666;DHT22;3369;49.906;8.598;2023-06-19T05:34:14;22.10;88.70
6666;DHT22;3369;49.906;8.598;2023-06-19T05:36:40;22.20;88.90
6666;DHT22;3369;49.906;8.598;2023-06-19T05:39:06;22.20;88.90
6666;DHT22;3369;49.906;8.598;2023-06-19T05:41:31;22.30;89.00
6666;DHT22;3369;49.906;8.598;2023-06-19T05:43:57;22.30;88.90
6666;DHT22;3369;49.906;8.598;2023-06-19T05:46:23;22.40;89.20
6666;DHT22;3369;49.906;8.598;2023-06-19T05:48:48;22.50;89.00
6666;DHT22;3369;49.906;8.598;2023-06-19T05:51:14;22.50;89.20
6666;DHT22;3369;49.906;8.598;2023-06-19T05:53:40;22.60;89.20
6666;DHT22;3369;49.906;8.598;2023-06-19T05:56:06;22.70;89.30
6666;DHT22;3369;49.906;8.598;2023-06-19T05:58:32;22.80;89.20
6666;DHT22;3369;49.906;8.598;2023-06-19T06:00:58;22.90;89.00
6666;DHT22;3369;49.906;8.598;2023-06-19T06:03:26;23.00;88.80
6666;DHT22;3369;49.906;8.598;2023-06-19T06:05:53;23.20;88.70
6666;DHT22;3369;49.906;8.598;2023-06-19T06:08:19;23.30;88.40
6666;DHT22;3369;49.906;8.598;2023-06-19T06:10:44;23.50;88.00
6666;DHT22;3369;49.906;8.598;2023-06-19T06:13:10;23.50;87.80
6666;DHT22;3369;49.906;8.598;2023-06-19T06:15:35;23.60;87.90
6666;DHT22;3369;49.906;8.598;2023-06-19T06:18:01;23.70;87.70
6666;DHT22;3369;49.906;8.598;2023-06-19T06:20:28;23.70;87.30
6666;DHT22;3369;49.906;8.598;2023-06-19T06:22:54;23.70;87.50
6666;DHT22;3369;49.906;8.598;2023-06-19T06:25:20;23.80;87.70
6666;DHT22;3369;49.906;8.598;2023-06-19T06:27:46;23.90;87.80
6666;DHT22;3369;49.906;8.598;2023-06-19T06:30:12;24.00;87.50
6666;DHT22;3369;49.906;8.598;2023-06-19T06:32:38;24.00;87.20
6666;DHT22;3369;49.906;8.598;2023-06-19T06:35:04;24.10;87.20
6666;DHT22;3369;49.906;8.598;2023-06-19T06:37:29;24.20;87.10
6666;DHT22;3369;49.906;8.598;2023-06-19T06:39:55;24.10;87.10
6666;DHT22;3369;49.906;8.598;2023-06-19T06:42:21;24.00;87.00
6666;DHT22;3369;49.906;8.598;2023-06-19T06:44:47;24.00;87.30
6666;DHT22;3369;49.906;8.598;2023-06-19T06:47:12;24.00;87.50
6666;DHT22;3369;49.906;8.598;2023-06-19T06:49:38;24.00;87.20
6666;DHT22;3369;49.906;8.598;2023-06-19T07:13:31;24.60;86.30
6666;DHT22;3369;49.906;8.598;2023-06-19T07:15:57;24.70;86.80
6666;DHT22;3369;49.906;8.598;2023-06-19T07:18:23;24.80;86.90
6666;DHT22;3369;49.906;8.598;2023-06-19T07:20:49;24.90;86.40
6666;DHT22;3369;49.906;8.598;2023-06-19T07:23:15;25.00;86.50
6666;DHT22;3369;49.906;8.598;2023-06-19T07:25:41;25.10;86.30
6666;DHT22;3369;49.906;8.598;2023-06-19T07:28:06;25.10;86.00
6666;DHT22;3369;49.906;8.598;2023-06-19T07:30:32;25.10;85.80
6666;DHT22;3369;49.906;8.598;2023-06-19T07:32:58;25.00;85.50
6666;DHT22;3369;49.906;8.598;2023-06-19T07:35:23;24.80;85.80
6666;DHT22;3369;49.906;8.598;2023-06-19T07:37:49;24.70;86.40
6666;DHT22;3369;49.906;8.598;2023-06-19T07:40:15;24.60;86.90
6666;DHT22;3369;49.906;8.598;2023-06-19T07:42:40;24.50;86.90
6666;DHT22;3369;49.906;8.598;2023-06-19T07:45:07;24.40;87.00
6666;DHT22;3369;49.906;8.598;2023-06-19T07:47:32;24.40;87.40
6666;DHT22;3369;49.906;8.598;2023-06-19T07:49:58;24.40;87.50
6666;DHT22;3369;49.906;8.598;2023-06-19T07:52:24;24.30;86.90
6666;DHT22;3369;49.906;8.598;2023-06-19T07:54:51;24.20;87.10
6666;DHT22;3369;49.906;8.598;2023-06-19T07:57:17;24.20;87.60
6666;DHT22;3369;49.906;8.598;2023-06-19T07:59:43;24.10;88.00
6666;DHT22;3369;49.906;8.598;2023-06-19T08:02:10;24.00;88.60
6666;DHT22;3369;49.906;8.598;2023-06-19T08:04:36;24.10;88.90
6666;DHT22;3369;49.906;8.598;2023-06-19T08:07:02;24.10;88.90
6666;DHT22;3369;49.906;8.598;2023-06-19T08:09:27;24.10;89.20
6666;DHT22;3369;49.906;8.598;2023-06-19T08:11:53;24.20;89.10
6666;DHT22;3369;49.906;8.598;2023-06-19T08:14:18;24.20;89.00
6666;DHT22;3369;49.906;8.598;2023-06-19T08:16:44;24.20;89.20
6666;DHT22;3369;49.906;8.598;2023-06-19T08:19:10;24.20;89.10
6666;DHT22;3369;49.906;8.598;2023-06-19T08:21:36;24.20;89.20
6666;DHT22;3369;49.906;8.598;2023-06-19T08:24:01;24.20;89.40
6666;DHT22;3369;49.906;8.598;2023-06-19T08:26:28;24.30;89.30
6666;DHT22;3369;49.906;8.598;2023-06-19T08:28:53;24.40;89.00
6666;DHT22;3369;49.906;8.598;2023-06-19T08:31:19;24.50;89.20
6666;DHT22;3369;49.906;8.598;2023-06-19T08:33:47;24.60;89.50
6666;DHT22;3369;49.906;8.598;2023-06-19T08:36:15;24.80;89.10
6666;DHT22;3369;49.906;8.598;2023-06-19T08:38:41;25.00;89.00
6666;DHT22;3369;49.906;8.598;2023-06-19T08:41:07;25.20;88.20
6666;DHT22;3369;49.906;8.598;2023-06-19T08:43:32;25.30;86.90
6666;DHT22;3369;49.906;8.598;2023-06-19T08:46:07;25.40;87.50
6666;DHT22;3369;49.906;8.598;2023-06-19T08:48:37;25.60;87.80
6666;DHT22;3369;49.906;8.598;2023-06-19T08:51:04;25.70;85.90
6666;DHT22;3369;49.906;8.598;2023-06-19T08:53:35;25.70;85.70
6666;DHT22;3369;49.906;8.598;2023-06-19T08:56:02;25.80;86.30
6666;DHT22;3369;49.906;8.598;2023-06-19T08:58:28;25.80;85.70
6666;DHT22;3369;49.906;8.598;2023-06-19T09:00:54;26.00;86.10
6666;DHT22;3369;49.906;8.598;2023-06-19T09:03:21;26.10;84.40
6666;DHT22;3369;49.906;8.598;2023-06-19T09:05:49;26.10;84.80
6666;DHT22;3369;49.906;8.598;2023-06-19T09:08:19;26.10;83.50
6666;DHT22;3369;49.906;8.598;2023-06-19T09:10:58;26.00;84.80
6666;DHT22;3369;49.906;8.598;2023-06-19T09:13:24;26.00;85.80
6666;DHT22;3369;49.906;8.598;2023-06-19T09:16:04;26.00;85.50
6666;DHT22;3369;49.906;8.598;2023-06-19T09:18:31;26.10;84.30
6666;DHT22;3369;49.906;8.598;2023-06-19T09:20:58;26.20;85.10
6666;DHT22;3369;49.906;8.598;2023-06-19T09:23:24;26.10;84.60
6666;DHT22;3369;49.906;8.598;2023-06-19T09:25:52;26.00;84.60
6666;DHT22;3369;49.906;8.598;2023-06-19T09:31:01;25.70;85.20
6666;DHT22;3369;49.906;8.598;2023-06-19T09:33:32;25.70;85.60
6666;DHT22;3369;49.906;8.598;2023-06-19T09:36:00;25.70;86.00
6666;DHT22;3369;49.906;8.598;2023-06-19T09:38:29;25.80;85.80
6666;DHT22;3369;49.906;8.598;2023-06-19T09:40:57;26.00;86.20
6666;DHT22;3369;49.906;8.598;2023-06-19T09:43:28;26.10;85.30
6666;DHT22;3369;49.906;8.598;2023-06-19T09:45:56;26.30;85.50
6666;DHT22;3369;49.906;8.598;2023-06-19T09:48:33;26.50;85.20
6666;DHT22;3369;49.906;8.598;2023-06-19T09:51:21;26.70;84.60
6666;DHT22;3369;49.906;8.598;2023-06-19T09:53:49;26.80;83.60
6666;DHT22;3369;49.906;8.598;2023-06-19T09:56:16;26.90;82.80
6666;DHT22;3369;49.906;8.598;2023-06-19T09:58:48;27.00;82.10
6666;DHT22;3369;49.906;8.598;2023-06-19T10:01:15;27.00;82.30
6666;DHT22;3369;49.906;8.598;2023-06-19T10:03:44;27.00;81.30
6666;DHT22;3369;49.906;8.598;2023-06-19T10:06:14;27.00;82.90
6666;DHT22;3369;49.906;8.598;2023-06-19T10:08:42;27.10;82.60
6666;DHT22;3369;49.906;8.598;2023-06-19T10:11:09;27.20;82.40
6666;DHT22;3369;49.906;8.598;2023-06-19T10:13:37;27.20;82.30
6666;DHT22;3369;49.906;8.598;2023-06-19T10:16:21;27.30;81.50
6666;DHT22;3369;49.906;8.598;2023-06-19T10:18:48;27.30;81.20
6666;DHT22;3369;49.906;8.598;2023-06-19T10:21:20;27.10;81.00
6666;DHT22;3369;49.906;8.598;2023-06-19T10:23:57;27.10;81.50
6666;DHT22;3369;49.906;8.598;2023-06-19T10:26:36;27.00;81.50
6666;DHT22;3369;49.906;8.598;2023-06-19T10:29:16;26.90;80.90
6666;DHT22;3369;49.906;8.598;2023-06-19T10:31:43;26.80;81.10
6666;DHT22;3369;49.906;8.598;2023-06-19T10:34:09;26.70;81.80
6666;DHT22;3369;49.906;8.598;2023-06-19T10:36:35;26.80;82.20
6666;DHT22;3369;49.906;8.598;2023-06-19T10:39:01;26.80;81.60
6666;DHT22;3369;49.906;8.598;2023-06-19T10:41:26;26.80;81.10
6666;DHT22;3369;49.906;8.598;2023-06-19T10:44:03;26.70;81.60
6666;DHT22;3369;49.906;8.598;2023-06-19T10:46:34;26.70;81.60
6666;DHT22;3369;49.906;8.598;2023-06-19T10:49:05;26.60;81.00
6666;DHT22;3369;49.906;8.598;2023-06-19T10:51:35;26.50;81.30
6666;DHT22;3369;49.906;8.598;2023-06-19T10:54:01;26.40;81.10
6666;DHT22;3369;49.906;8.598;2023-06-19T10:56:27;26.40;81.10
6666;DHT22;3369;49.906;8.598;2023-06-19T10:59:11;26.40;81.30
6666;DHT22;3369;49.906;8.598;2023-06-19T11:01:42;26.30;81.70
6666;DHT22;3369;49.906;8.598;2023-06-19T11:04:09;26.20;81.70
6666;DHT22;3369;49.906;8.598;2023-06-19T11:06:36;26.20;81.80
6666;DHT22;3369;49.906;8.598;2023-06-19T11:09:02;26.10;81.60
6666;DHT22;3369;49.906;8.598;2023-06-19T11:14:06;26.10;81.60
6666;DHT22;3369;49.906;8.598;2023-06-19T11:16:39;26.10;81.90
6666;DHT22;3369;49.906;8.598;2023-06-19T11:19:13;26.20;81.20
6666;DHT22;3369;49.906;8.598;2023-06-19T11:21:39;26.20;81.30
6666;DHT22;3369;49.906;8.598;2023-06-19T11:24:11;26.20;81.00
6666;DHT22;3369;49.906;8.598;2023-06-19T11:26:39;26.20;80.90
6666;DHT22;3369;49.906;8.598;2023-06-19T11:29:15;26.30;81.00
6666;DHT22;3369;49.906;8.598;2023-06-19T11:31:41;26.40;80.80
6666;DHT22;3369;49.906;8.598;2023-06-19T11:34:07;26.50;80.30
6666;DHT22;3369;49.906;8.598;2023-06-19T11:36:37;26.50;80.00
6666;DHT22;3369;49.906;8.598;2023-06-19T11:39:03;26.60;78.40
6666;DHT22;3369;49.906;8.598;2023-06-19T11:41:30;26.60;78.10
6666;DHT22;3369;49.906;8.598;2023-06-19T11:44:00;26.60;78.70
6666;DHT22;3369;49.906;8.598;2023-06-19T11:46:33;26.60;78.00
6666;DHT22;3369;49.906;8.598;2023-06-19T11:51:35;26.80;77.00
6666;DHT22;3369;49.906;8.598;2023-06-19T11:54:01;26.80;77.10
6666;DHT22;3369;49.906;8.598;2023-06-19T11:56:27;26.90;76.50
6666;DHT22;3369;49.906;8.598;2023-06-19T11:58:52;26.90;76.40
6666;DHT22;3369;49.906;8.598;2023-06-19T12:01:18;27.00;77.00
6666;DHT22;3369;49.906;8.598;2023-06-19T12:03:44;27.10;76.40
6666;DHT22;3369;49.906;8.598;2023-06-19T12:06:09;27.20;76.20
6666;DHT22;3369;49.906;8.598;2023-06-19T12:08:35;27.30;76.30
6666;DHT22;3369;49.906;8.598;2023-06-19T12:11:02;27.40;76.20
6666;DHT22;3369;49.906;8.598;2023-06-19T12:13:28;27.50;76.10
6666;DHT22;3369;49.906;8.598;2023-06-19T12:15:54;27.70;76.10
6666;DHT22;3369;49.906;8.598;2023-06-19T12:18:19;27.70;74.90
6666;DHT22;3369;49.906;8.598;2023-06-19T12:20:45;27.70;73.80
6666;DHT22;3369;49.906;8.598;2023-06-19T12:23:11;27.80;73.30
6666;DHT22;3369;49.906;8.598;2023-06-19T12:25:36;27.80;73.60
6666;DHT22;3369;49.906;8.598;2023-06-19T12:28:02;27.90;73.70
6666;DHT22;3369;49.906;8.598;2023-06-19T12:30:34;27.90;73.10
6666;DHT22;3369;49.906;8.598;2023-06-19T12:33:00;28.00;72.00
6666;DHT22;3369;49.906;8.598;2023-06-19T12:35:26;28.00;71.10
6666;DHT22;3369;49.906;8.598;2023-06-19T12:37:52;28.00;71.80
6666;DHT22;3369;49.906;8.598;2023-06-19T12:40:18;28.00;72.10
6666;DHT22;3369;49.906;8.598;2023-06-19T12:42:43;28.00;72.70
6666;DHT22;3369;49.906;8.598;2023-06-19T12:45:10;28.00;72.40
6666;DHT22;3369;49.906;8.598;2023-06-19T12:47:36;28.00;72.90
6666;DHT22;3369;49.906;8.598;2023-06-19T12:50:02;28.00;72.60
6666;DHT22;3369;49.906;8.598;2023-06-19T12:52:28;28.10;72.90
6666;DHT22;3369;49.906;8.598;2023-06-19T12:54:54;28.20;73.30
6666;DHT22;3369;49.906;8.598;2023-06-19T12:57:19;28.30;72.60
6666;DHT22;3369;49.906;8.598;2023-06-19T12:59:45;28.30;71.50
6666;DHT22;3369;49.906;8.598;2023-06-19T13:02:11;28.40;72.00
6666;DHT22;3369;49.906;8.598;2023-06-19T13:04:36;28.40;67.50
6666;DHT22;3369;49.906;8.598;2023-06-19T13:07:03;28.40;67.20
6666;DHT22;3369;49.906;8.598;2023-06-19T13:30:26;28.40;69.90
6666;DHT22;3369;49.906;8.598;2023-06-19T13:32:51;28.60;70.60
6666;DHT22;3369;49.906;8.598;2023-06-19T13:35:17;28.70;68.80
6666;DHT22;3369;49.906;8.598;2023-06-19T13:37:43;28.80;67.20
6666;DHT22;3369;49.906;8.598;2023-06-19T13:40:09;29.00;65.00
6666;DHT22;3369;49.906;8.598;2023-06-19T13:42:35;29.10;65.10
6666;DHT22;3369;49.906;8.598;2023-06-19T13:45:01;29.10;63.90
6666;DHT22;3369;49.906;8.598;2023-06-19T13:47:28;29.10;63.00
6666;DHT22;3369;49.906;8.598;2023-06-19T13:49:53;29.10;63.50
6666;DHT22;3369;49.906;8.598;2023-06-19T13:52:19;29.10;63.60
6666;DHT22;3369;49.906;8.598;2023-06-19T13:54:45;29.10;63.80
6666;DHT22;3369;49.906;8.598;2023-06-19T13:57:11;29.20;64.40
6666;DHT22;3369;49.906;8.598;2023-06-19T13:59:36;29.40;65.00
6666;DHT22;3369;49.906;8.598;2023-06-19T14:02:02;29.50;64.20
6666;DHT22;3369;49.906;8.598;2023-06-19T14:04:28;29.50;64.90
6666;DHT22;3369;49.906;8.598;2023-06-19T14:06:54;29.50;64.50
6666;DHT22;3369;49.906;8.598;2023-06-19T14:09:20;29.50;64.70
6666;DHT22;3369;49.906;8.598;2023-06-19T14:11:46;29.40;64.30
6666;DHT22;3369;49.906;8.598;2023-06-19T14:14:12;29.30;63.90
6666;DHT22;3369;49.906;8.598;2023-06-19T14:16:37;29.20;64.50
6666;DHT22;3369;49.906;8.598;2023-06-19T14:19:03;29.20;64.60
6666;DHT22;3369;49.906;8.598;2023-06-19T14:21:28;29.10;65.00
6666;DHT22;3369;49.906;8.598;2023-06-19T14:23:54;29.00;64.50
6666;DHT22;3369;49.906;8.598;2023-06-19T14:26:20;29.00;63.50
6666;DHT22;3369;49.906;8.598;2023-06-19T14:28:46;29.00;63.90
6666;DHT22;3369;49.906;8.598;2023-06-19T14:31:12;29.10;62.90
6666;DHT22;3369;49.906;8.598;2023-06-19T14:33:37;29.00;62.60
6666;DHT22;3369;49.906;8.598;2023-06-19T14:36:04;29.00;63.00
6666;DHT22;3369;49.906;8.598;2023-06-19T14:38:29;28.90;63.50
6666;DHT22;3369;49.906;8.598;2023-06-19T14:41:00;28.80;63.50
6666;DHT22;3369;49.906;8.598;2023-06-19T14:43:26;28.80;64.00
6666;DHT22;3369;49.906;8.598;2023-06-19T14:45:52;28.80;63.30
6666;DHT22;3369;49.906;8.598;2023-06-19T14:48:18;28.80;63.30
6666;DHT22;3369;49.906;8.598;2023-06-19T14:50:43;28.80;65.80
6666;DHT22;3369;49.906;8.598;2023-06-19T14:53:09;28.80;65.00
6666;DHT22;3369;49.906;8.598;2023-06-19T14:55:35;28.80;65.30
6666;DHT22;3369;49.906;8.598;2023-06-19T14:58:00;28.70;64.10
6666;DHT22;3369;49.906;8.598;2023-06-19T15:00:26;28.70;64.30
6666;DHT22;3369;49.906;8.598;2023-06-19T15:02:52;28.60;64.70
6666;DHT22;3369;49.906;8.598;2023-06-19T15:05:17;28.50;64.70
6666;DHT22;3369;49.906;8.598;2023-06-19T15:07:43;28.50;65.30
6666;DHT22;3369;49.906;8.598;2023-06-19T15:10:09;28.40;66.40
6666;DHT22;3369;49.906;8.598;2023-06-19T15:12:36;28.40;67.60
6666;DHT22;3369;49.906;8.598;2023-06-19T15:15:01;28.40;67.80
6666;DHT22;3369;49.906;8.598;2023-06-19T15:17:27;28.40;68.20
6666;DHT22;3369;49.906;8.598;2023-06-19T15:19:53;28.30;68.40
6666;DHT22;3369;49.906;8.598;2023-06-19T15:22:19;28.30;68.60
6666;DHT22;3369;49.906;8.598;2023-06-19T15:24:44;28.30;68.90
6666;DHT22;3369;49.906;8.598;2023-06-19T15:27:10;28.30;68.90
6666;DHT22;3369;49.906;8.598;2023-06-19T15:29:37;28.30;68.70
6666;DHT22;3369;49.906;8.598;2023-06-19T15:32:04;28.30;68.90
6666;DHT22;3369;49.906;8.598;2023-06-19T15:34:30;28.20;68.40
6666;DHT22;3369;49.906;8.598;2023-06-19T15:36:55;28.20;68.90
6666;DHT22;3369;49.906;8.598;2023-06-19T15:39:21;28.20;69.30
6666;DHT22;3369;49.906;8.598;2023-06-19T15:41:47;28.20;69.50
6666;DHT22;3369;49.906;8.598;2023-06-19T15:44:14;28.20;69.60
6666;DHT22;3369;49.906;8.598;2023-06-19T15:46:40;28.10;69.60
6666;DHT22;3369;49.906;8.598;2023-06-19T15:49:05;28.10;69.70
6666;DHT22;3369;49.906;8.598;2023-06-19T15:51:31;28.10;69.90
6666;DHT22;3369;49.906;8.598;2023-06-19T15:53:57;28.10;70.60
6666;DHT22;3369;49.906;8.598;2023-06-19T15:56:22;28.10;69.70
6666;DHT22;3369;49.906;8.598;2023-06-19T15:58:48;28.10;69.30
6666;DHT22;3369;49.906;8.598;2023-06-19T16:01:17;28.10;69.70
6666;DHT22;3369;49.906;8.598;2023-06-19T16:03:43;28.00;69.50
6666;DHT22;3369;49.906;8.598;2023-06-19T16:06:09;28.00;69.80
6666;DHT22;3369;49.906;8.598;2023-06-19T16:08:34;28.00;69.90
6666;DHT22;3369;49.906;8.598;2023-06-19T16:11:00;28.00;70.00
6666;DHT22;3369;49.906;8.598;2023-06-19T16:13:28;28.00;70.00
6666;DHT22;3369;49.906;8.598;2023-06-19T16:15:54;28.00;70.30
6666;DHT22;3369;49.906;8.598;2023-06-19T16:18:20;28.00;70.50
6666;DHT22;3369;49.906;8.598;2023-06-19T16:20:46;27.90;70.80
6666;DHT22;3369;49.906;8.598;2023-06-19T16:23:11;27.90;70.60
6666;DHT22;3369;49.906;8.598;2023-06-19T16:25:38;27.90;70.30
6666;DHT22;3369;49.906;8.598;2023-06-19T16:28:03;27.90;70.40
6666;DHT22;3369;49.906;8.598;2023-06-19T16:30:29;27.80;70.70
6666;DHT22;3369;49.906;8.598;2023-06-19T16:32:55;27.80;70.90
6666;DHT22;3369;49.906;8.598;2023-06-19T16:35:21;27.80;71.10
6666;DHT22;3369;49.906;8.598;2023-06-19T16:37:51;27.70;71.50
6666;DHT22;3369;49.906;8.598;2023-06-19T16:40:21;27.70;71.80
6666;DHT22;3369;49.906;8.598;2023-06-19T16:42:49;27.60;71.70
6666;DHT22;3369;49.906;8.598;2023-06-19T16:45:15;27.60;71.80
6666;DHT22;3369;49.906;8.598;2023-06-19T16:47:41;27.60;71.70
6666;DHT22;3369;49.906;8.598;2023-06-19T16:50:07;27.60;71.70
6666;DHT22;3369;49.906;8.598;2023-06-19T16:52:32;27.60;71.70
6666;DHT22;3369;49.906;8.598;2023-06-19T16:54:58;27.60;72.20
6666;DHT22;3369;49.906;8.598;2023-06-19T16:57:24;27.60;72.20
6666;DHT22;3369;49.906;8.598;2023-06-19T16:59:51;27.60;72.50
6666;DHT22;3369;49.906;8.598;2023-06-19T17:02:17;27.60;72.30
6666;DHT22;3369;49.906;8.598;2023-06-19T17:04:42;27.50;72.40
6666;DHT22;3369;49.906;8.598;2023-06-19T17:07:08;27.50;72.40
6666;DHT22;3369;49.906;8.598;2023-06-19T17:09:34;27.50;72.60